Time;durP1;ratioP1;P1;durP2;ratioP2;P2;SDS_P1;SDS_P2;PMS_P1;PMS_P2;Temp;Humidity;BMP_temperature;BMP_pressure;BME280_temperature;BME280_humidity;BME280_pressure;Samples;Min_cycle;Max_cycle;Signal;HPM_P1;HPM_P2
2022/01/07 03:02:23;;;;;;;;;;;;;;;2.44;100.00;98796.22;6203234;22;19964;-68
2022/01/07 03:04:50;;;;;;;;;;;;;;;2.42;100.00;98799.28;6187534;23;19950;-68
2022/01/07 03:07:17;;;;;;;;;;;;;;;2.41;100.00;98794.91;6186925;23;19957;-68
2022/01/07 03:09:45;;;;;;;;;;;;;;;2.40;100.00;98792.47;6186698;23;20313;-68
2022/01/07 03:12:13;;;;;;;;;;;;;;;2.33;100.00;98792.19;6186442;23;20336;-68
2022/01/07 03:14:40;;;;;;;;;;;;;;;2.26;100.00;98784.44;6187568;23;19954;-68
2022/01/07 03:17:07;;;;;;;;;;;;;;;2.22;100.00;98782.69;6160388;23;20001;-68
2022/01/07 03:19:35;;;;;;;;;;;;;;;2.22;100.00;98785.44;6187266;23;19940;-68
2022/01/07 03:22:02;;;;;;;;;;;;;;;2.23;100.00;98793.38;6187548;23;19952;-68
2022/01/07 03:24:30;;;;;;;;;;;;;;;2.28;100.00;98801.47;6187653;23;19951;-68
2022/01/07 03:26:57;;;;;;;;;;;;;;;2.25;100.00;98798.56;6186522;23;19944;-68
2022/01/07 03:29:24;;;;;;;;;;;;;;;2.22;100.00;98793.72;6187680;23;19951;-68
2022/01/07 03:31:51;;;;;;;;;;;;;;;2.21;100.00;98789.31;6186693;23;20194;-68
2022/01/07 03:34:19;;;;;;;;;;;;;;;2.23;100.00;98785.09;6187539;23;19937;-68
2022/01/07 03:36:46;;;;;;;;;;;;;;;2.27;100.00;98786.06;6186491;23;19983;-68
2022/01/07 03:39:13;;;;;;;;;;;;;;;2.31;100.00;98780.69;6186531;23;19994;-68
2022/01/07 03:41:41;;;;;;;;;;;;;;;2.36;100.00;98774.97;6186776;23;19951;-68
2022/01/07 03:44:08;;;;;;;;;;;;;;;2.43;100.00;98778.03;6186479;23;20301;-68
2022/01/07 03:46:35;;;;;;;;;;;;;;;2.52;100.00;98782.34;6187354;23;19955;-68
2022/01/07 03:49:03;;;;;;;;;;;;;;;2.57;100.00;98779.41;6135563;23;19950;-68
2022/01/07 03:51:30;;;;;;;;;;;;;;;2.65;100.00;98778.53;6187151;23;19951;-68
2022/01/07 03:53:57;;;;;;;;;;;;;;;2.76;100.00;98784.50;6185935;23;19957;-68
2022/01/07 03:56:25;;;;;;;;;;;;;;;2.93;100.00;98778.03;6186814;23;19943;-68
2022/01/07 03:58:52;;;;;;;;;;;;;;;2.91;100.00;98777.56;6186511;23;19962;-67
2022/01/07 04:01:19;;;;;;;;;;;;;;;2.88;100.00;98772.72;6187280;23;19949;-68
2022/01/07 04:03:47;;;;;;;;;;;;;;;2.86;100.00;98775.00;6185960;23;19985;-68
2022/01/07 04:06:20;;;;;;;;;;;;;;;2.87;100.00;98776.59;6186179;23;19951;-68
2022/01/07 04:08:48;;;;;;;;;;;;;;;2.86;100.00;98778.56;6185197;23;20432;-68
2022/01/07 04:11:16;;;;;;;;;;;;;;;2.88;100.00;98773.53;6186408;23;20189;-68
2022/01/07 04:13:44;;;;;;;;;;;;;;;2.87;100.00;98779.38;6185555;23;19947;-68
2022/01/07 04:16:12;;;;;;;;;;;;;;;2.81;100.00;98787.06;6186001;23;19948;-68
2022/01/07 04:18:39;;;;;;;;;;;;;;;2.81;100.00;98787.06;6185798;23;20318;-68
2022/01/07 04:21:07;;;;;;;;;;;;;;;2.81;100.00;98789.81;6185856;23;20346;-68
2022/01/07 04:23:34;;;;;;;;;;;;;;;2.88;100.00;98790.09;6186461;23;20237;-68
2022/01/07 04:26:02;;;;;;;;;;;;;;;2.86;100.00;98795.13;6186335;23;19947;-68
2022/01/07 04:28:29;;;;;;;;;;;;;;;2.89;100.00;98780.66;6185911;23;19947;-68
2022/01/07 04:30:57;;;;;;;;;;;;;;;2.88;100.00;98787.34;6210153;23;20475;-68
2022/01/07 04:33:29;;;;;;;;;;;;;;;2.90;100.00;98781.47;6185436;23;19948;-68
2022/01/07 04:35:57;;;;;;;;;;;;;;;2.85;100.00;98788.00;6196486;23;19951;-68
2022/01/07 04:38:24;;;;;;;;;;;;;;;2.83;100.00;98786.72;6186519;23;19967;-67
2022/01/07 04:40:51;;;;;;;;;;;;;;;2.78;100.00;98790.50;6187902;23;19947;-68
2022/01/07 04:43:19;;;;;;;;;;;;;;;2.79;100.00;98796.81;6187721;23;19952;-68
2022/01/07 04:45:47;;;;;;;;;;;;;;;2.82;100.00;98796.94;6188409;23;19949;-68
2022/01/07 04:48:14;;;;;;;;;;;;;;;2.88;100.00;98803.09;6187627;23;20393;-68
2022/01/07 04:50:42;;;;;;;;;;;;;;;2.90;100.00;98789.75;6187066;23;19948;-68
2022/01/07 04:53:09;;;;;;;;;;;;;;;2.81;100.00;98797.28;6188428;23;20305;-68
2022/01/07 04:55:37;;;;;;;;;;;;;;;2.71;100.00;98801.25;6188139;23;20356;-68
2022/01/07 04:58:05;;;;;;;;;;;;;;;2.52;100.00;98796.16;6188955;23;19966;-68
2022/01/07 05:00:33;;;;;;;;;;;;;;;2.38;100.00;98795.56;6187551;23;19945;-68
2022/01/07 05:03:01;;;;;;;;;;;;;;;2.34;100.00;98797.41;6185297;23;19964;-68
2022/01/07 05:05:28;;;;;;;;;;;;;;;2.24;100.00;98803.28;6187606;23;19950;-68
2022/01/07 05:07:56;;;;;;;;;;;;;;;2.22;100.00;98797.28;6187515;23;19949;-68
2022/01/07 05:10:23;;;;;;;;;;;;;;;2.19;100.00;98799.88;6187920;23;19958;-68
2022/01/07 05:12:51;;;;;;;;;;;;;;;2.10;100.00;98797.19;6187647;23;19955;-68
2022/01/07 05:15:18;;;;;;;;;;;;;;;2.05;100.00;98805.63;6188083;23;19947;-68
2022/01/07 05:17:46;;;;;;;;;;;;;;;2.02;100.00;98808.22;6187853;23;19954;-68
2022/01/07 05:20:14;;;;;;;;;;;;;;;2.03;100.00;98804.34;6187752;23;19940;-66
2022/01/07 05:22:42;;;;;;;;;;;;;;;1.94;100.00;98799.66;6187409;23;19945;-67
2022/01/07 05:25:10;;;;;;;;;;;;;;;1.88;100.00;98802.94;6186649;23;19951;-66
2022/01/07 05:27:38;;;;;;;;;;;;;;;1.90;100.00;98795.13;6187879;23;19942;-65
2022/01/07 05:30:07;;;;;;;;;;;;;;;1.88;100.00;98800.94;6186193;23;19955;-65
2022/01/07 05:32:34;;;;;;;;;;;;;;;1.83;100.00;98806.63;6185467;23;19948;-66
2022/01/07 05:35:02;;;;;;;;;;;;;;;1.78;100.00;98809.59;6187945;23;19952;-66
2022/01/07 05:37:29;;;;;;;;;;;;;;;1.84;100.00;98812.97;6187127;23;19954;-67
2022/01/07 05:39:57;;;;;;;;;;;;;;;1.98;100.00;98816.38;6187666;23;19975;-66
2022/01/07 05:42:25;;;;;;;;;;;;;;;2.06;100.00;98810.00;6187288;23;19989;-66
2022/01/07 05:44:55;;;;;;;;;;;;;;;2.12;100.00;98819.72;6187004;23;19947;-66
2022/01/07 05:47:22;;;;;;;;;;;;;;;2.09;100.00;98819.56;6187136;23;20194;-66
2022/01/07 05:49:50;;;;;;;;;;;;;;;2.15;100.00;98815.50;6187142;23;19938;-66
2022/01/07 05:52:17;;;;;;;;;;;;;;;1.97;100.00;98810.03;6186989;23;19941;-66
2022/01/07 05:54:44;;;;;;;;;;;;;;;1.88;100.00;98811.97;6186977;23;19951;-66
2022/01/07 05:57:11;;;;;;;;;;;;;;;1.80;100.00;98807.31;6187350;23;19945;-66
2022/01/07 05:59:39;;;;;;;;;;;;;;;1.67;100.00;98810.25;6186282;23;19965;-66
2022/01/07 06:02:06;;;;;;;;;;;;;;;1.52;100.00;98811.56;6187215;23;19948;-66
2022/01/07 06:04:34;;;;;;;;;;;;;;;1.46;100.00;98810.13;6197364;23;20214;-66
2022/01/07 06:07:01;;;;;;;;;;;;;;;1.34;100.00;98812.75;6187424;23;19941;-66
2022/01/07 06:09:28;;;;;;;;;;;;;;;1.27;100.00;98809.66;6187562;23;19956;-67
2022/01/07 06:11:56;;;;;;;;;;;;;;;1.20;100.00;98812.06;6186062;23;19939;-66
2022/01/07 06:14:23;;;;;;;;;;;;;;;1.16;100.00;98817.44;6187401;23;20202;-66
2022/01/07 06:16:50;;;;;;;;;;;;;;;1.10;100.00;98823.44;6186320;23;19958;-66
2022/01/07 06:19:18;;;;;;;;;;;;;;;1.07;100.00;98810.31;6186622;23;19970;-66
2022/01/07 06:21:45;;;;;;;;;;;;;;;1.01;100.00;98815.16;6184947;23;20229;-66
2022/01/07 06:24:14;;;;;;;;;;;;;;;0.99;100.00;98811.91;6203228;23;19954;-66
2022/01/07 06:26:41;;;;;;;;;;;;;;;0.99;100.00;98816.63;6216793;23;20224;-66
2022/01/07 06:29:10;;;;;;;;;;;;;;;0.97;100.00;98811.44;6215988;23;19955;-66
2022/01/07 06:31:37;;;;;;;;;;;;;;;1.15;100.00;98815.81;6212424;23;19930;-66
2022/01/07 06:34:04;;;;;;;;;;;;;;;1.21;100.00;98814.53;6214199;23;19947;-66
2022/01/07 06:36:32;;;;;;;;;;;;;;;1.25;100.00;98815.50;6215997;23;19949;-65
2022/01/07 06:38:59;;;;;;;;;;;;;;;1.31;100.00;98827.97;6215963;23;20034;-65
2022/01/07 06:41:27;;;;;;;;;;;;;;;1.24;100.00;98818.56;6189199;23;19955;-65
2022/01/07 06:43:54;;;;;;;;;;;;;;;1.23;100.00;98822.44;6216714;23;19955;-65
2022/01/07 06:46:21;;;;;;;;;;;;;;;1.25;100.00;98828.44;6216313;23;19955;-66
2022/01/07 06:48:49;;;;;;;;;;;;;;;1.27;100.00;98828.97;6216985;23;19978;-65
2022/01/07 06:51:16;;;;;;;;;;;;;;;1.25;100.00;98825.69;6216048;23;19947;-65
2022/01/07 06:53:43;;;;;;;;;;;;;;;1.29;100.00;98822.00;6216946;23;19948;-65
2022/01/07 06:56:11;;;;;;;;;;;;;;;1.27;100.00;98837.22;6215797;23;19960;-65
2022/01/07 06:58:38;;;;;;;;;;;;;;;1.28;100.00;98831.38;6215468;23;19969;-66
2022/01/07 07:01:08;;;;;;;;;;;;;;;1.41;100.00;98840.63;6214861;23;19954;-66
2022/01/07 07:03:35;;;;;;;;;;;;;;;1.55;100.00;98832.97;6214458;23;19974;-66
2022/01/07 07:06:03;;;;;;;;;;;;;;;1.53;100.00;98839.94;6214266;23;19945;-66
2022/01/07 07:08:30;;;;;;;;;;;;;;;1.59;100.00;98844.19;6214989;23;19963;-66
2022/01/07 07:10:57;;;;;;;;;;;;;;;1.68;100.00;98845.78;6213446;23;20219;-66
2022/01/07 07:13:25;;;;;;;;;;;;;;;1.67;100.00;98843.34;6214743;23;19942;-66
2022/01/07 07:15:52;;;;;;;;;;;;;;;1.66;100.00;98845.31;6215205;23;20065;-66
2022/01/07 07:18:20;;;;;;;;;;;;;;;1.67;100.00;98846.09;6216739;23;19952;-66
2022/01/07 07:20:47;;;;;;;;;;;;;;;1.76;100.00;98853.22;6215240;23;20371;-66
2022/01/07 07:23:14;;;;;;;;;;;;;;;1.87;100.00;98854.50;6216100;23;19945;-66
2022/01/07 07:25:41;;;;;;;;;;;;;;;1.89;100.00;98851.41;6215919;23;20335;-66
2022/01/07 07:28:09;;;;;;;;;;;;;;;1.96;100.00;98857.22;6215578;23;19952;-67
2022/01/07 07:30:39;;;;;;;;;;;;;;;2.09;100.00;98859.00;6215376;23;19946;-66
2022/01/07 07:34:07;;;;;;;;;;;;;;;2.53;100.00;98866.78;6214413;23;19947;-66
2022/01/07 07:38:45;;;;;;;;;;;;;;;4.52;100.00;98862.06;6214964;23;19952;-67
2022/01/07 07:41:12;;;;;;;;;;;;;;;5.49;100.00;98859.19;6215324;23;19962;-67
2022/01/07 07:43:41;;;;;;;;;;;;;;;6.56;100.00;98865.44;6226243;23;19947;-67
2022/01/07 07:46:08;;;;;;;;;;;;;;;8.01;100.00;98857.66;6215948;23;19955;-67
2022/01/07 07:48:35;;;;;;;;;;;;;;;8.82;100.00;98863.97;6216531;23;19945;-67
2022/01/07 07:51:03;;;;;;;;;;;;;;;9.20;100.00;98869.34;6214948;23;19949;-67
2022/01/07 07:53:30;;;;;;;;;;;;;;;9.56;100.00;98862.34;6216172;23;19936;-67
2022/01/07 07:55:58;;;;;;;;;;;;;;;11.48;100.00;98866.75;6215815;23;19952;-68
2022/01/07 07:58:27;;;;;;;;;;;;;;;13.04;100.00;98868.94;6215491;23;19953;-67
2022/01/07 08:00:54;;;;;;;;;;;;;;;14.71;100.00;98867.31;6214864;23;19963;-68
2022/01/07 08:03:23;;;;;;;;;;;;;;;15.70;90.65;98879.41;6215702;23;19967;-68
2022/01/07 08:05:50;;;;;;;;;;;;;;;16.43;80.79;98873.34;6215930;23;19942;-68
2022/01/07 08:08:18;;;;;;;;;;;;;;;18.14;69.11;98879.44;6215075;23;19943;-68
2022/01/07 08:10:51;;;;;;;;;;;;;;;18.82;62.82;98879.66;6215235;23;19951;-68
2022/01/07 08:15:57;;;;;;;;;;;;;;;19.67;56.98;98869.09;6216914;23;19947;-68
2022/01/07 08:16:19;;;;;;;;;;;;;;;20.02;50.45;98868.16;6217194;23;19974;-68
2022/01/07 08:18:48;;;;;;;;;;;;;;;21.74;49.70;98871.81;6218845;23;19935;-68
2022/01/07 08:21:16;;;;;;;;;;;;;;;20.84;46.43;98877.94;6217103;23;19990;-69
2022/01/07 08:23:43;;;;;;;;;;;;;;;22.08;44.20;98875.47;6218235;23;20084;-68
2022/01/07 08:26:12;;;;;;;;;;;;;;;21.92;42.74;98877.69;6217920;23;19945;-68
2022/01/07 08:28:47;;;;;;;;;;;;;;;22.19;41.35;98877.94;6217460;23;19951;-68
2022/01/07 08:36:46;;;;;;;;;;;;;;;18.04;48.54;98860.66;6218267;23;20591;-68
2022/01/07 08:39:13;;;;;;;;;;;;;;;17.16;52.83;98867.06;6204708;23;19940;-68
2022/01/07 08:41:42;;;;;;;;;;;;;;;16.41;56.69;98859.63;6217608;23;20300;-68
2022/01/07 08:44:10;;;;;;;;;;;;;;;16.29;57.20;98862.22;6217869;23;20189;-68
2022/01/07 08:46:38;;;;;;;;;;;;;;;15.58;58.61;98865.03;6218262;23;19938;-68
2022/01/07 08:49:06;;;;;;;;;;;;;;;15.76;59.35;98860.81;6217855;23;19934;-68
2022/01/07 08:51:33;;;;;;;;;;;;;;;15.42;61.82;98862.75;6218472;23;19939;-68
2022/01/07 08:54:01;;;;;;;;;;;;;;;14.37;66.44;98853.03;6217363;23;19944;-68
2022/01/07 08:56:28;;;;;;;;;;;;;;;13.47;70.02;98850.09;6217950;23;19982;-68
2022/01/07 08:58:57;;;;;;;;;;;;;;;12.22;77.47;98853.97;6218225;23;19942;-67
2022/01/07 09:01:24;;;;;;;;;;;;;;;11.35;86.20;98848.66;6217219;23;19970;-67
2022/01/07 09:03:52;;;;;;;;;;;;;;;10.40;92.48;98843.03;6217848;23;19970;-67
2022/01/07 09:06:20;;;;;;;;;;;;;;;9.86;97.75;98844.38;6216963;23;20374;-69
2022/01/07 09:08:47;;;;;;;;;;;;;;;8.97;100.00;98837.91;6217373;23;19950;-69
2022/01/07 09:11:16;;;;;;;;;;;;;;;8.25;100.00;98832.25;6206139;23;19958;-69
2022/01/07 09:13:45;;;;;;;;;;;;;;;8.00;100.00;98832.94;6216438;23;20632;-67
2022/01/07 09:16:12;;;;;;;;;;;;;;;7.87;100.00;98835.09;6216782;23;19943;-67
2022/01/07 09:18:40;;;;;;;;;;;;;;;7.52;100.00;98839.91;6218143;23;19946;-68
2022/01/07 09:21:09;;;;;;;;;;;;;;;7.35;100.00;98840.31;6216866;23;19973;-69
2022/01/07 09:23:41;;;;;;;;;;;;;;;7.32;100.00;98839.06;6217134;23;19970;-69
2022/01/07 09:26:09;;;;;;;;;;;;;;;7.23;100.00;98841.25;6200953;23;20361;-68
2022/01/07 09:28:37;;;;;;;;;;;;;;;6.59;100.00;98830.56;6217914;23;19946;-68
2022/01/07 09:31:04;;;;;;;;;;;;;;;6.28;100.00;98830.56;6216368;23;19943;-68
2022/01/07 09:33:32;;;;;;;;;;;;;;;6.09;100.00;98834.00;6217018;23;19944;-68
2022/01/07 09:36:15;;;;;;;;;;;;;;;5.86;100.00;98832.97;6217243;23;19943;-68
2022/01/07 09:38:42;;;;;;;;;;;;;;;5.88;100.00;98820.34;6217275;23;19951;-68
2022/01/07 09:41:09;;;;;;;;;;;;;;;5.79;100.00;98824.41;6217271;23;19961;-68
2022/01/07 09:43:37;;;;;;;;;;;;;;;5.87;100.00;98821.50;6216823;23;20335;-68
2022/01/07 09:46:04;;;;;;;;;;;;;;;5.65;100.00;98812.94;6217093;23;19945;-68
2022/01/07 09:48:31;;;;;;;;;;;;;;;5.84;100.00;98813.88;6217696;23;20290;-68
2022/01/07 09:50:59;;;;;;;;;;;;;;;5.75;100.00;98809.63;6217193;23;19973;-68
2022/01/07 09:53:27;;;;;;;;;;;;;;;6.02;100.00;98797.72;6216189;23;20300;-68
2022/01/07 09:55:54;;;;;;;;;;;;;;;6.00;100.00;98794.50;6216593;23;19949;-68
2022/01/07 09:58:21;;;;;;;;;;;;;;;5.73;100.00;98789.75;6217575;23;20174;-68
2022/01/07 10:00:49;;;;;;;;;;;;;;;5.23;100.00;98790.31;6217514;23;19964;-68
2022/01/07 10:03:17;;;;;;;;;;;;;;;5.57;100.00;98794.47;6217546;23;19965;-68
2022/01/07 10:05:46;;;;;;;;;;;;;;;5.32;100.00;98797.31;6217288;23;19946;-68
2022/01/07 10:08:22;;;;;;;;;;;;;;;5.04;100.00;98799.22;6217426;23;19950;-68
2022/01/07 10:11:08;;;;;;;;;;;;;;;4.96;100.00;98791.88;6216386;23;19947;-68
2022/01/07 10:13:35;;;;;;;;;;;;;;;4.89;100.00;98796.38;6217064;23;19956;-68
2022/01/07 10:16:13;;;;;;;;;;;;;;;4.96;100.00;98796.59;6216706;23;19954;-68
2022/01/07 10:18:49;;;;;;;;;;;;;;;5.59;100.00;98789.34;6215816;23;19945;-68
2022/01/07 10:21:17;;;;;;;;;;;;;;;5.20;100.00;98788.22;6217265;23;19965;-68
2022/01/07 10:23:45;;;;;;;;;;;;;;;5.01;100.00;98794.38;6217352;23;19941;-68
2022/01/07 10:26:16;;;;;;;;;;;;;;;5.24;100.00;98786.34;6216885;23;19946;-68
2022/01/07 10:28:44;;;;;;;;;;;;;;;5.27;100.00;98783.69;6216350;23;19958;-68
2022/01/07 10:31:19;;;;;;;;;;;;;;;5.29;100.00;98778.59;6216576;23;20295;-68
2022/01/07 10:33:48;;;;;;;;;;;;;;;5.30;100.00;98773.88;6216955;23;19951;-68
2022/01/07 10:36:15;;;;;;;;;;;;;;;5.66;100.00;98770.13;6216713;23;19950;-68
2022/01/07 10:38:54;;;;;;;;;;;;;;;5.74;100.00;98763.63;6226958;23;19948;-68
2022/01/07 10:41:22;;;;;;;;;;;;;;;5.54;100.00;98762.69;6227296;23;19960;-68
2022/01/07 10:43:51;;;;;;;;;;;;;;;5.41;100.00;98758.34;6216895;23;19944;-68
2022/01/07 10:46:24;;;;;;;;;;;;;;;5.59;100.00;98753.28;6216801;23;19950;-68
2022/01/07 10:48:58;;;;;;;;;;;;;;;5.90;100.00;98754.19;6216138;23;19945;-68
2022/01/07 10:51:27;;;;;;;;;;;;;;;5.60;100.00;98754.91;6216193;23;19954;-68
2022/01/07 10:54:02;;;;;;;;;;;;;;;5.94;100.00;98749.53;6215261;23;19948;-68
2022/01/07 10:56:37;;;;;;;;;;;;;;;5.87;100.00;98740.22;6226735;23;19984;-68
2022/01/07 10:59:06;;;;;;;;;;;;;;;5.64;100.00;98739.97;6216221;23;20315;-68
2022/01/07 11:01:36;;;;;;;;;;;;;;;5.74;100.00;98745.03;6215990;23;20234;-68
2022/01/07 11:04:26;;;;;;;;;;;;;;;5.17;100.00;98730.69;6215664;23;19987;-68
2022/01/07 11:06:56;;;;;;;;;;;;;;;5.34;100.00;98724.84;6215894;23;19967;-68
2022/01/07 11:09:24;;;;;;;;;;;;;;;5.27;100.00;98724.66;6216909;23;19950;-68
2022/01/07 11:11:55;;;;;;;;;;;;;;;5.46;100.00;98727.56;6216755;23;20290;-68
2022/01/07 11:14:30;;;;;;;;;;;;;;;5.26;100.00;98717.50;6215721;23;19953;-67
2022/01/07 11:16:59;;;;;;;;;;;;;;;5.09;100.00;98718.59;6216359;23;19948;-68
2022/01/07 11:19:28;;;;;;;;;;;;;;;5.39;100.00;98721.84;6216702;23;20282;-68
2022/01/07 11:21:55;;;;;;;;;;;;;;;4.79;100.00;98708.19;6216042;23;20312;-69
2022/01/07 11:24:35;;;;;;;;;;;;;;;5.00;100.00;98706.03;6216104;23;19962;-70
2022/01/07 11:27:05;;;;;;;;;;;;;;;5.29;100.00;98706.50;6215758;23;19966;-69
2022/01/07 11:29:39;;;;;;;;;;;;;;;5.15;100.00;98702.53;6216404;23;20269;-69
2022/01/07 11:32:22;;;;;;;;;;;;;;;5.43;100.00;98697.00;6215280;23;19955;-69
2022/01/07 11:34:50;;;;;;;;;;;;;;;5.25;100.00;98708.38;6216101;23;19949;-68
2022/01/07 11:37:33;;;;;;;;;;;;;;;5.41;100.00;98697.31;6217062;23;19949;-75
2022/01/07 11:40:00;;;;;;;;;;;;;;;5.56;100.00;98704.06;6225910;23;19953;-68
2022/01/07 11:42:42;;;;;;;;;;;;;;;5.71;100.00;98690.22;6189548;23;19961;-67
2022/01/07 11:45:28;;;;;;;;;;;;;;;5.65;100.00;98688.09;6188999;23;19942;-67
2022/01/07 11:47:57;;;;;;;;;;;;;;;5.80;100.00;98682.53;6215296;23;19940;-67
2022/01/07 11:50:24;;;;;;;;;;;;;;;5.67;100.00;98683.75;6214943;23;20297;-68
2022/01/07 11:53:00;;;;;;;;;;;;;;;5.50;100.00;98675.00;6216189;23;20322;-68
2022/01/07 11:55:35;;;;;;;;;;;;;;;5.70;100.00;98666.41;6215465;23;19944;-68
2022/01/07 11:58:03;;;;;;;;;;;;;;;5.84;100.00;98666.00;6226039;23;19946;-68
2022/01/07 12:00:49;;;;;;;;;;;;;;;5.39;100.00;98660.84;6216179;23;19944;-68
2022/01/07 12:03:43;;;;;;;;;;;;;;;5.45;100.00;98659.44;6216066;23;19982;-68
2022/01/07 12:06:17;;;;;;;;;;;;;;;5.27;100.00;98647.03;6211216;23;19951;-67
2022/01/07 12:08:56;;;;;;;;;;;;;;;5.29;100.00;98642.75;6215413;23;19947;-67
2022/01/07 12:11:28;;;;;;;;;;;;;;;5.52;100.00;98642.16;6215820;23;19978;-67
2022/01/07 12:13:56;;;;;;;;;;;;;;;5.53;100.00;98635.44;6216364;23;19978;-67
2022/01/07 12:16:27;;;;;;;;;;;;;;;5.60;100.00;98628.09;6215791;23;19955;-68
2022/01/07 12:19:05;;;;;;;;;;;;;;;5.44;100.00;98632.84;6214823;23;20517;-67
2022/01/07 12:21:36;;;;;;;;;;;;;;;5.53;100.00;98633.47;6226434;23;19964;-67
2022/01/07 12:24:04;;;;;;;;;;;;;;;5.48;100.00;98636.50;6216174;23;19951;-67
2022/01/07 12:26:31;;;;;;;;;;;;;;;5.34;100.00;98630.59;6216198;23;19960;-68
2022/01/07 12:28:59;;;;;;;;;;;;;;;5.47;100.00;98625.78;6215418;23;19949;-67
2022/01/07 12:31:26;;;;;;;;;;;;;;;5.43;100.00;98627.66;6215465;23;19963;-68
2022/01/07 12:33:55;;;;;;;;;;;;;;;5.50;100.00;98628.63;6216045;23;20206;-68
2022/01/07 12:36:30;;;;;;;;;;;;;;;5.20;100.00;98628.25;6215262;23;20204;-67
2022/01/07 12:39:08;;;;;;;;;;;;;;;5.24;100.00;98625.56;6215689;23;20211;-67
2022/01/07 12:41:36;;;;;;;;;;;;;;;5.19;100.00;98628.59;6215073;23;19964;-67
2022/01/07 12:44:10;;;;;;;;;;;;;;;5.32;100.00;98624.59;6215233;23;19953;-67
2022/01/07 12:46:39;;;;;;;;;;;;;;;5.29;100.00;98628.88;6215919;23;19947;-67
2022/01/07 12:49:07;;;;;;;;;;;;;;;5.25;100.00;98627.19;6215183;23;20400;-67
2022/01/07 12:51:35;;;;;;;;;;;;;;;4.95;100.00;98620.38;6215961;23;20007;-67
2022/01/07 12:54:05;;;;;;;;;;;;;;;5.09;100.00;98609.69;6216177;23;20374;-68
2022/01/07 12:56:37;;;;;;;;;;;;;;;5.12;100.00;98612.56;6215913;23;19948;-68
2022/01/07 12:59:17;;;;;;;;;;;;;;;5.05;100.00;98614.34;6216232;23;19952;-68
2022/01/07 13:01:45;;;;;;;;;;;;;;;5.28;100.00;98602.31;6217488;23;19979;-69
2022/01/07 13:04:23;;;;;;;;;;;;;;;5.25;100.00;98596.69;6216724;23;19973;-68
2022/01/07 13:06:56;;;;;;;;;;;;;;;4.96;100.00;98597.06;6227959;23;20292;-67
2022/01/07 13:09:30;;;;;;;;;;;;;;;5.09;100.00;98591.09;6217150;23;20333;-67
2022/01/07 13:11:59;;;;;;;;;;;;;;;5.24;100.00;98587.56;6228187;23;19948;-67
2022/01/07 13:14:27;;;;;;;;;;;;;;;5.11;100.00;98574.91;6218063;23;19978;-67
2022/01/07 13:16:56;;;;;;;;;;;;;;;4.91;100.00;98577.94;6216604;23;19941;-67
2022/01/07 13:19:24;;;;;;;;;;;;;;;4.88;100.00;98578.63;6216255;23;19951;-67
2022/01/07 13:21:53;;;;;;;;;;;;;;;4.83;100.00;98574.16;6217434;23;19964;-67
2022/01/07 13:24:22;;;;;;;;;;;;;;;4.73;100.00;98568.31;6216368;23;19955;-73
2022/01/07 13:26:54;;;;;;;;;;;;;;;4.74;100.00;98561.63;6217912;23;20155;-68
2022/01/07 13:29:26;;;;;;;;;;;;;;;4.68;100.00;98563.00;6217874;23;19950;-69
2022/01/07 13:32:01;;;;;;;;;;;;;;;4.51;100.00;98559.41;6216321;23;19961;-67
2022/01/07 13:34:30;;;;;;;;;;;;;;;4.56;100.00;98556.38;6227795;23;19950;-69
2022/01/07 13:37:04;;;;;;;;;;;;;;;4.71;100.00;98559.56;6217312;23;19963;-67
2022/01/07 13:39:40;;;;;;;;;;;;;;;4.78;100.00;98562.50;6217846;23;20214;-68
2022/01/07 13:42:09;;;;;;;;;;;;;;;4.55;100.00;98560.28;6217271;23;19974;-69
2022/01/07 13:44:55;;;;;;;;;;;;;;;4.64;100.00;98557.41;6217044;23;19955;-69
2022/01/07 13:47:23;;;;;;;;;;;;;;;4.90;100.00;98548.59;6216976;23;20014;-69
2022/01/07 13:49:51;;;;;;;;;;;;;;;4.86;100.00;98547.72;6217892;23;19961;-67
2022/01/07 13:52:26;;;;;;;;;;;;;;;4.81;100.00;98547.97;6216333;23;19943;-67
2022/01/07 13:54:54;;;;;;;;;;;;;;;4.66;100.00;98555.06;6217604;23;19947;-67
2022/01/07 13:57:21;;;;;;;;;;;;;;;4.53;100.00;98557.09;6216938;23;19948;-67
2022/01/07 13:59:50;;;;;;;;;;;;;;;4.61;100.00;98563.63;6215904;23;19949;-68
2022/01/07 14:02:17;;;;;;;;;;;;;;;4.72;100.00;98555.63;6215821;23;19977;-68
2022/01/07 14:04:47;;;;;;;;;;;;;;;4.71;100.00;98557.59;6215816;23;20177;-67
2022/01/07 14:07:33;;;;;;;;;;;;;;;4.81;100.00;98545.19;6215752;23;19945;-67
2022/01/07 14:10:17;;;;;;;;;;;;;;;4.55;100.00;98554.75;6216583;23;20211;-67
2022/01/07 14:12:55;;;;;;;;;;;;;;;4.58;100.00;98547.72;6217168;23;19948;-67
2022/01/07 14:15:27;;;;;;;;;;;;;;;4.62;100.00;98537.56;6215837;23;19990;-67
2022/01/07 14:18:04;;;;;;;;;;;;;;;4.66;100.00;98541.22;6216142;23;19970;-67
2022/01/07 14:20:38;;;;;;;;;;;;;;;4.71;100.00;98540.16;6227625;23;19940;-67
2022/01/07 14:23:05;;;;;;;;;;;;;;;4.70;100.00;98535.75;6216884;23;19964;-68
2022/01/07 14:25:33;;;;;;;;;;;;;;;4.72;100.00;98527.94;6217637;23;19952;-68
2022/01/07 14:28:02;;;;;;;;;;;;;;;4.77;100.00;98525.69;6216355;23;19946;-67
2022/01/07 14:30:30;;;;;;;;;;;;;;;4.76;100.00;98523.28;6216208;23;19946;-67
2022/01/07 14:32:57;;;;;;;;;;;;;;;4.75;100.00;98527.19;6217345;23;19941;-67
2022/01/07 14:35:24;;;;;;;;;;;;;;;4.72;100.00;98528.72;6216029;23;19952;-68
2022/01/07 14:37:52;;;;;;;;;;;;;;;4.69;100.00;98521.13;6216461;23;19943;-68
2022/01/07 14:40:19;;;;;;;;;;;;;;;4.69;100.00;98514.78;6216184;23;19948;-68
2022/01/07 14:42:46;;;;;;;;;;;;;;;4.67;100.00;98520.66;6216743;23;19975;-68
2022/01/07 14:45:14;;;;;;;;;;;;;;;4.56;100.00;98519.56;6217064;23;20212;-67
2022/01/07 14:47:43;;;;;;;;;;;;;;;4.42;100.00;98511.69;6216023;23;19950;-68
2022/01/07 14:50:11;;;;;;;;;;;;;;;4.31;100.00;98510.56;6216827;23;19940;-67
2022/01/07 14:52:54;;;;;;;;;;;;;;;4.37;100.00;98509.16;6216253;23;19955;-67
2022/01/07 14:55:24;;;;;;;;;;;;;;;4.21;100.00;98511.06;6216365;23;19949;-67
2022/01/07 14:57:52;;;;;;;;;;;;;;;4.15;100.00;98501.41;6216659;23;19956;-67
2022/01/07 15:00:21;;;;;;;;;;;;;;;4.24;100.00;98509.53;6216494;23;19949;-67
2022/01/07 15:02:48;;;;;;;;;;;;;;;4.18;100.00;98495.13;6215377;23;19972;-67
2022/01/07 15:05:16;;;;;;;;;;;;;;;4.19;100.00;98496.75;6216966;23;19955;-67
2022/01/07 15:07:56;;;;;;;;;;;;;;;4.16;100.00;98483.63;6216148;23;19944;-67
2022/01/07 15:10:23;;;;;;;;;;;;;;;4.13;100.00;98487.13;6217028;23;19980;-67
2022/01/07 15:12:50;;;;;;;;;;;;;;;4.07;100.00;98484.91;6215955;23;19951;-67
2022/01/07 15:18:03;;;;;;;;;;;;;;;3.97;100.00;98497.28;6216016;23;19956;-67
2022/01/07 15:20:31;;;;;;;;;;;;;;;3.86;100.00;98485.88;6216605;23;19955;-67
2022/01/07 15:23:00;;;;;;;;;;;;;;;3.88;100.00;98488.31;6215208;23;19967;-67
2022/01/07 15:25:27;;;;;;;;;;;;;;;3.91;100.00;98485.66;6216274;23;19948;-67
2022/01/07 15:27:54;;;;;;;;;;;;;;;3.90;100.00;98484.06;6190615;23;19951;-67
2022/01/07 15:30:22;;;;;;;;;;;;;;;3.83;100.00;98474.75;6215953;23;20258;-67
2022/01/07 15:32:50;;;;;;;;;;;;;;;3.81;100.00;98477.88;6215459;23;19946;-67
2022/01/07 15:35:18;;;;;;;;;;;;;;;3.70;100.00;98470.38;6216045;23;19947;-67
2022/01/07 15:37:47;;;;;;;;;;;;;;;3.64;100.00;98477.31;6215550;23;19953;-67
2022/01/07 15:40:14;;;;;;;;;;;;;;;3.58;100.00;98468.44;6204126;23;19954;-67
2022/01/07 15:42:42;;;;;;;;;;;;;;;3.51;100.00;98468.22;6216334;23;19966;-67
2022/01/07 15:45:10;;;;;;;;;;;;;;;3.44;100.00;98469.97;6215791;23;19957;-67
2022/01/07 15:47:38;;;;;;;;;;;;;;;3.35;100.00;98467.31;6216697;23;20377;-67
2022/01/07 15:50:06;;;;;;;;;;;;;;;3.29;100.00;98465.94;6215842;23;20260;-67
2022/01/07 15:52:33;;;;;;;;;;;;;;;3.21;100.00;98466.84;6215596;23;19959;-67
2022/01/07 15:55:01;;;;;;;;;;;;;;;3.14;100.00;98467.44;6216719;23;19935;-67
2022/01/07 15:57:28;;;;;;;;;;;;;;;3.08;100.00;98466.03;6215288;23;19946;-67
2022/01/07 15:59:55;;;;;;;;;;;;;;;2.98;100.00;98474.00;6215504;23;19956;-67
2022/01/07 16:02:24;;;;;;;;;;;;;;;2.93;100.00;98463.16;6215805;23;19969;-67
2022/01/07 16:04:51;;;;;;;;;;;;;;;2.81;100.00;98457.63;6226557;23;19952;-67
2022/01/07 16:07:19;;;;;;;;;;;;;;;2.73;100.00;98462.09;6216585;23;19947;-67
2022/01/07 16:09:48;;;;;;;;;;;;;;;2.70;100.00;98459.22;6215499;23;19950;-67
2022/01/07 16:12:15;;;;;;;;;;;;;;;2.73;100.00;98455.78;6215141;23;19955;-67